Latest Weather Observations for Wilkins Runway*

IDT60801

Issued at 4:02 pm EDT Tuesday 28 February 2017 (issued every 30 minutes, with the page automatically refreshed every 10 minutes)

About weather observations | Map of weather stations | Latest weather observations for ANT | Other Formats
Station Details ID: 300050 Name: WILKINS RUNWAY EAST Lat: -66.68 Lon: 111.53 Height: 753.0 m
Data from the previous 72 hours. | See also: Recent months for locations in Antarctica
Date/Time
EDT
Temp
°C
App
Temp
°C
Dew
Point
°C
Rel
Hum
%
Delta-T
°C
Wind Press
QNH
hPa
Press
MSL
hPa
Rain since
9am
mm
Dir  Spd
km/h
Gust
km/h
Spd
kts
Gust
kts
28/03:30pm -10.2 -18.9 -15.9 63 - E 28 37 15 20 986.1 - -
28/03:00pm -10.2 -19.3 -15.5 65 - E 30 35 16 19 986.2 - -
28/02:30pm -10.5 -20.0 -16.3 62 - E 32 39 17 21 986.1 - -
28/02:00pm -10.8 -19.6 -16.6 62 - E 28 37 15 20 986.0 - -
28/01:30pm -11.1 -19.1 -16.2 66 - E 24 28 13 15 986.1 - -
28/01:00pm -11.5 -19.5 -16.9 64 - E 24 30 13 16 986.0 - -
28/12:30pm -11.8 -20.2 -17.0 65 - E 26 30 14 16 986.0 - -
28/12:00pm -12.1 -20.1 -16.9 67 - E 24 28 13 15 985.9 - -
28/11:30am -12.4 -21.6 -17.2 67 - E 30 33 16 18 985.8 - -
28/11:00am -12.7 -21.9 -17.7 66 - E 30 33 16 18 985.7 - -
28/10:30am -13.2 -22.4 -17.8 68 - E 30 33 16 18 985.5 - -
28/10:00am -14.0 -23.6 -18.4 69 - E 32 35 17 19 985.4 - -
28/09:30am -15.2 -24.8 -19.2 71 - E 32 35 17 19 985.4 - -
28/09:00am -16.3 -26.2 -20.5 70 - E 33 35 18 19 985.2 - -
28/08:30am -16.5 -26.4 -20.8 69 - E 33 37 18 20 984.8 - -
28/08:00am -15.9 -25.8 -20.1 70 - E 33 37 18 20 984.5 - -
28/07:30am -14.9 -24.5 -19.1 70 - ENE 32 35 17 19 984.3 - -
28/07:00am -14.7 -23.9 -18.9 70 - ENE 30 33 16 18 984.2 - -
28/06:30am -15.4 -24.3 -19.6 70 - E 28 32 15 17 984.3 - -
28/06:00am -15.6 -24.1 -19.8 70 - E 26 30 14 16 984.2 - -
28/05:30am -15.7 -24.6 -19.9 70 - E 28 33 15 18 984.2 - -
28/05:00am -15.2 -23.3 -19.2 71 - E 24 33 13 18 984.3 - -
28/04:30am -15.4 -23.9 -19.6 70 - E 26 33 14 18 984.1 - -
28/04:00am -17.0 -25.9 -21.3 69 - E 28 28 15 15 984.0 - -
28/03:30am -15.5 -22.3 -20.2 67 - ENE 17 20 9 11 983.8 - -
28/03:00am -16.9 -25.5 -21.5 67 - E 26 32 14 17 983.7 - -
28/02:30am -15.2 -22.0 -19.4 70 - ENE 17 20 9 11 983.7 - -
28/02:00am -15.8 -22.2 -20.0 70 - ENE 15 17 8 9 983.7 - -
28/01:30am -14.5 -20.5 -19.1 68 - ENE 13 19 7 10 983.4 - -
28/01:00am -14.6 -21.4 -19.0 69 - NE 17 19 9 10 983.3 - -
28/12:30am -14.2 -20.6 -18.8 68 - ENE 15 17 8 9 983.1 - -
28/12:00am -13.8 -20.6 -18.6 67 - NE 17 19 9 10 983.0 - -
 
Date/Time
EDT
Temp
°C
App
Temp
°C
Dew
Point
°C
Rel
Hum
%
Delta-T
°C
Wind Press
QNH
hPa
Press
MSL
hPa
Rain since
9am
mm
Dir  Spd
km/h
Gust
km/h
Spd
kts
Gust
kts
27/11:30pm -13.6 -20.3 -18.0 69 - NE 17 19 9 10 982.9 - -
27/11:00pm -13.3 -20.1 -18.3 66 - ENE 17 19 9 10 982.7 - -
27/10:30pm -13.1 -20.2 -17.7 68 - ENE 19 22 10 12 982.7 - -
27/10:00pm -12.7 -20.0 -17.5 67 - ENE 20 24 11 13 982.4 - -
27/09:30pm -12.2 -19.5 -17.4 65 - E 20 24 11 13 982.2 - -
27/09:00pm -11.7 -18.4 -17.1 64 - E 17 20 9 11 982.0 - -
27/08:30pm -11.0 -17.3 -16.4 64 - E 15 17 8 9 981.9 - -
27/08:00pm -10.2 -16.1 -15.9 63 - ENE 13 15 7 8 981.6 - -
27/07:30pm -10.0 -16.7 -16.5 59 - E 17 19 9 10 981.5 - -
27/07:00pm -9.6 -15.9 -15.7 61 - E 15 17 8 9 981.5 - -
27/06:30pm -10.0 -16.6 -15.7 63 - E 17 20 9 11 981.5 - -
27/06:00pm -9.9 -16.6 -16.2 60 - E 17 20 9 11 981.3 - -
27/05:30pm -9.1 -14.3 -16.9 53 - E 9 15 5 8 981.2 - -
27/05:00pm -8.3 -12.2 -18.6 43 - E 2 4 1 2 981.2 - -
27/04:30pm -8.7 -13.3 -17.9 47 - ENE 6 7 3 4 980.9 - -
27/04:00pm -8.5 -12.0 -17.5 48 - CALM 0 2 0 1 980.8 - -
27/03:30pm -9.6 -14.2 -16.9 55 - SE 6 7 3 4 980.7 - -
27/03:00pm -9.8 -14.1 -18.2 50 - ESE 4 4 2 2 980.4 - -
27/02:30pm -10.0 -15.2 -17.1 56 - NE 9 15 5 8 980.3 - -
27/02:00pm -9.8 -14.6 -17.5 53 - NE 7 9 4 5 980.2 - -
27/01:30pm -10.6 -16.6 -17.6 56 - NNW 13 24 7 13 979.9 - -
27/01:00pm -11.9 -21.5 -17.7 62 - E 32 37 17 20 979.3 - -
27/12:30pm -12.4 -22.0 -18.1 62 - E 32 37 17 20 979.1 - -
27/12:00pm -13.1 -21.6 -18.6 63 - E 26 33 14 18 979.1 - -
27/11:30am -13.4 -23.6 -18.9 63 - E 35 46 19 25 978.8 - -
27/10:30am -14.6 -24.5 -20.4 61 - E 33 39 18 21 978.5 - -
27/10:17am -14.9 -25.5 -20.5 62 - E 37 41 20 22 978.5 - -
27/10:00am -14.8 -22.6 -20.8 60 - ENE 22 39 12 21 978.5 - -
27/09:30am -12.4 -18.8 -20.2 52 - ENE 15 28 8 15 978.7 - -
27/09:00am -13.8 -21.2 -21.7 51 - ENE 20 30 11 16 978.5 - -
27/08:30am -15.3 -21.0 -20.7 63 - NE 11 15 6 8 978.3 - -
27/08:00am -15.9 -23.1 -20.8 66 - NE 19 22 10 12 977.9 - -
27/07:30am -15.1 -21.2 -21.3 59 - ENE 13 20 7 11 977.9 - -
27/07:00am -13.2 -20.4 -19.3 60 - ENE 19 24 10 13 977.5 - -
27/06:30am -15.3 -21.4 -20.2 66 - NE 13 17 7 9 977.2 - -
27/06:00am -14.7 -22.5 -20.0 64 - NE 22 26 12 14 977.0 - -
27/05:30am -14.1 -21.5 -20.0 61 - NE 20 24 11 13 976.3 - -
27/05:00am -13.2 -21.7 -19.7 58 - ENE 26 37 14 20 976.3 - -
27/04:30am -14.8 -24.7 -20.1 64 - ENE 33 41 18 22 975.9 - -
27/04:00am -15.0 -23.9 -20.3 64 - E 28 35 15 19 975.8 - -
27/03:30am -15.2 -25.4 -20.3 65 - E 35 41 19 22 975.7 - -
27/03:00am -15.0 -25.6 -20.3 64 - E 37 46 20 25 975.5 - -
27/02:30am -15.0 -25.2 -20.4 63 - E 35 41 19 22 975.5 - -
27/02:00am -14.6 -24.8 -19.9 64 - E 35 41 19 22 975.4 - -
27/01:30am -15.3 -25.2 -20.2 66 - E 33 41 18 22 975.3 - -
27/01:00am -14.6 -24.4 -19.5 66 - E 33 39 18 21 975.4 - -
27/12:30am -14.2 -24.0 -19.7 63 - E 33 44 18 24 975.5 - -
27/12:00am -14.3 -24.2 -20.1 61 - E 33 43 18 23 975.3 - -
 
Date/Time
EDT
Temp
°C
App
Temp
°C
Dew
Point
°C
Rel
Hum
%
Delta-T
°C
Wind Press
QNH
hPa
Press
MSL
hPa
Rain since
9am
mm
Dir  Spd
km/h
Gust
km/h
Spd
kts
Gust
kts
26/11:30pm -14.2 -23.8 -19.1 66 - E 32 35 17 19 975.3 - -
26/11:00pm -13.2 -22.4 -18.4 65 - E 30 33 16 18 974.9 - -
26/10:30pm -12.5 -21.3 -17.9 64 - E 28 33 15 18 974.7 - -
26/10:00pm -11.9 -20.7 -17.5 63 - E 28 33 15 18 974.5 - -
26/09:30pm -11.4 -20.6 -17.0 63 - E 30 35 16 19 974.3 - -
26/09:00pm -10.5 -20.1 -17.3 57 - E 32 37 17 20 974.0 - -
26/08:30pm -10.3 -19.8 -16.7 59 - E 32 39 17 21 973.7 - -
26/08:00pm -9.7 -19.4 -16.4 58 - E 33 39 18 21 973.4 - -
26/07:30pm -9.0 -17.0 -16.8 53 - E 24 37 13 20 973.1 - -
26/07:00pm -8.5 -16.8 -15.5 57 - E 26 32 14 17 973.2 - -
26/06:30pm -9.5 -19.6 -16.6 56 - ENE 35 46 19 25 973.0 - -
26/06:00pm -8.8 -18.3 -15.3 59 - E 32 41 17 22 972.7 - -
26/05:30pm -9.5 -19.9 -15.2 63 - E 37 43 20 23 972.6 - -
26/05:00pm -9.2 -19.6 -15.3 61 - E 37 46 20 25 972.7 - -
26/04:30pm -9.0 -19.4 -15.5 59 - E 37 43 20 23 972.7 - -
26/04:00pm -9.8 -21.0 -15.9 61 - E 41 48 22 26 972.7 - -
26/03:30pm -9.6 -21.4 -16.1 59 - E 44 50 24 27 972.7 - -
26/03:00pm -8.7 -20.3 -16.3 54 - E 43 56 23 30 972.7 - -
26/02:30pm -9.3 -21.5 -17.8 50 - E 46 67 25 36 972.8 - -
26/02:27pm -9.3 -22.3 -16.9 54 - E 50 74 27 40 972.7 - -
26/02:13pm -10.0 -24.4 -18.7 49 - E 57 76 31 41 971.9 - -
26/02:12pm -9.9 -24.1 -19.3 46 - E 56 67 30 36 972.1 - -
26/02:10pm -6.9 -19.9 -18.2 40 - ESE 50 61 27 33 972.0 - -
26/02:08pm -9.7 -20.3 -18.6 48 - ENE 37 67 20 36 972.4 - -
26/02:00pm -10.0 -19.1 -16.3 60 - N 30 54 16 29 973.2 - -
26/01:59pm -10.0 -19.1 -15.9 62 - N 30 50 16 27 973.2 - -
26/01:55pm -10.2 -18.6 -15.9 63 - N 26 35 14 19 973.4 - -
26/01:53pm -11.1 -21.9 -15.6 69 - E 39 57 21 31 973.4 - -
26/01:30pm -11.5 -27.3 -16.2 68 - ESE 65 76 35 41 971.4 - -
26/01:00pm -11.0 -26.8 -16.1 66 - ESE 65 74 35 40 971.5 - -
26/12:30pm -10.6 -27.2 -17.6 56 - E 69 80 37 43 971.6 - -
26/12:24pm -10.4 -26.6 -17.9 54 - ESE 67 80 36 43 971.7 - -
26/12:21pm -10.4 -26.6 -17.9 54 - ESE 67 80 36 43 971.9 - -
26/12:00pm -10.4 -26.3 -18.1 53 - ESE 65 87 35 47 971.8 - -
26/11:58am -9.7 -25.6 -19.1 46 - ESE 65 87 35 47 972.0 - -
26/11:57am -10.1 -26.0 -18.5 50 - ESE 65 82 35 44 972.0 - -
26/11:32am -10.2 -26.4 -18.1 52 - ESE 67 87 36 47 971.5 - -
26/11:30am -10.5 -27.1 -18.4 52 - ESE 69 82 37 44 972.4 - -
26/11:00am -10.8 -27.0 -18.0 55 - E 67 82 36 44 971.9 - -
26/10:30am -11.1 -28.3 -18.1 56 - E 72 83 39 45 971.7 - -
26/10:00am -11.6 -29.2 -18.0 59 - E 74 83 40 45 971.7 - -
26/09:30am -12.0 -29.2 -17.8 62 - E 72 82 39 44 972.1 - -
26/09:21am -12.0 -28.6 -17.8 62 - E 69 80 37 43 972.1 - -
26/09:00am -11.8 -27.2 -17.0 65 - E 63 72 34 39 973.1 - -
26/08:31am -11.8 -26.0 -15.8 72 - E 57 67 31 36 973.3 - -
26/08:30am -11.8 -26.0 -15.8 72 - E 57 67 31 36 973.3 - -
26/08:00am -11.8 -26.4 -15.3 75 - E 59 69 32 37 973.5 - -
26/07:47am -11.7 -25.7 -15.5 73 - E 56 65 30 35 973.7 - -
26/07:30am -11.9 -26.1 -15.7 73 - E 57 65 31 35 974.0 - -
26/07:00am -11.8 -25.8 -15.5 74 - E 56 63 30 34 974.0 - -
26/06:30am -11.7 -24.6 -15.4 74 - E 50 56 27 30 974.4 - -
26/06:00am -11.1 -23.6 -15.1 72 - E 48 57 26 31 974.7 - -
26/05:30am -10.8 -23.3 -14.8 72 - E 48 56 26 30 975.1 - -
26/05:00am -10.6 -23.1 -15.0 70 - E 48 54 26 29 975.3 - -
26/04:30am -10.3 -24.5 -14.7 70 - ESE 57 65 31 35 974.9 - -
26/04:00am -10.0 -24.0 -14.4 70 - ESE 56 63 30 34 974.9 - -
26/03:30am -10.0 -22.8 -13.6 75 - ESE 50 57 27 31 975.2 - -

Other Formats:

Comma delimited format used in spreadsheet applications
http://www.bom.gov.au/fwo/IDT60803/IDT60803.89615.axf

JavaScript Object Notation format (JSON) in row-major order
http://www.bom.gov.au/fwo/IDT60803/IDT60803.89615.json